Portada
METAR-TAF:

METAR-TAF

Aeropuertos :

Amán, Jordania

Aeropuerto Civil de Amán

latitud: 31-59N, longitud: 035-59E, altitud: 767 m

Observación

El informe se hizo hace 40 minutos, a las 23:00 UTC
Viento calma
Temperatura 18°C
Humedad 73%
Presión 1018 hPa
Visibilidad: 5000 m
calima

METAR: OJAM 202300Z 00000KT 5000 HZ NSC 18/13 Q1018 NOSIG

Hora: 02:40 (23:40 UTC)

Pronóstico

El informe se hizo hace 50 minutos, a las 22:50 UTC
Pronóstico válido del 21 a las 00 UTC al 22 a las 06 UTC
Viento 2 kt con dirección variable
Visibilidad: 5000 m
calima
Temporalmente
del 21 a las 00 UTC al 21 a las 06 UTC
Visibilidad: 3000 m
neblina
Evolucionando progresivamente
del 21 a las 06 UTC al 21 a las 08 UTC
Viento 6 kt del oeste-noroeste

TAF: OJAM 202250Z 2100/2206 VRB02KT 5000 HZ NSC TEMPO 2100/2106 3000 BR BECMG 2106/2108 29006KT

Observaciones y pronósticos meteorológicos de más de 4000 aeropuertos (mensajes METAR y TAF).

Los puntos amarillos y rojos representan las estaciones disponibles.

Ponga el ratón en el punto deseado para ver el nombre de la estación.

Haga clic para ver las observaciones y los pronósticos meteorológicos.

Para cambiar el mapa : haga clic en los botones verdes con una cruz de color negro para hacer un zoom, en el botón verde con un guión para alejar o en las flechas verdes para mapas adyacentes.


METAR-TAF: